Portada
METAR-TAF:

METAR-TAF

Aeroports :

Hermosillo, Mèxic

latitud: 29-04N, longitud: 110-57W, altitud: 211 m

Observació

L'informe es va fer fa 48 minuts, a les 00:40 UTC
Vent 13 kt del Sud-Oest
Temperatura 30°C
Humitat 22%
Pressió 1012 hPa
Visibilitat: 16.1 km
Cel clar

METAR: MMHO 270040Z 23013KT 10SM SKC 30/06 A2988 RMK HZY

Hora: 18:28 (01:28 UTC)

Pronòstic

L'informe es va fer fa 8 hores i 32 minuts, a les 16:56 UTC
Pronòstic vàlid del 26 a les 18 UTC al 27 a les 18 UTC
Vent 12 kt del Sud-Oest
Visibilitat: 10 km
Núvols disperses a una alçada de 20000 ft
Temporalment
l' 26 a les 20 UTC al 26 a les 24 UTC
Vent 18 kt del Sud-Oest
A partir de les 27 a les 0400 UTC
Vent 6 kt del Oest
Visibilitat: 10 km
Cel clar
A partir de les 27 a les 1600 UTC
Vent 12 kt del Oest
Visibilitat: 10 km
Cel clar

TAF: MMHO 261656Z 2618/2718 23012KT P6SM SCT200 TEMPO 2620/2624 23018KT FM270400 27006KT P6SM SKC FM271600 26012KT P6SM SKC

Observacions i pronòstics meteorològics de més de 4000 aeroports (METAR i TAF).

Les estacions disponibles són els punts grocs i vermells al mapa.

Posi el ratolí al punt desitjat per veure el nom de l'estació.

Feu clic per veure les observacions i els pronòstics meteorològics.

Per canviar el mapa: feu clic els botons verds amb una creu de color negre per apropar; al botó verd amb un guió per allunyar la imatge; o en les fletxes verdes per a mapes adjacents.


METAR-TAF: